createdAt,value
2022-10-09T04:16:35.008Z,2.10
2022-10-09T04:19:01.447Z,2.02
2022-10-09T04:21:27.866Z,2.00
2022-10-09T04:23:54.327Z,1.98
2022-10-09T04:26:20.750Z,1.96
2022-10-09T04:28:47.232Z,1.94
2022-10-09T04:31:13.823Z,1.93
2022-10-09T04:33:40.303Z,1.86
2022-10-09T04:36:06.993Z,1.79
2022-10-09T04:38:33.514Z,1.79
2022-10-09T04:41:05.514Z,1.79
2022-10-09T04:43:33.292Z,1.78
2022-10-09T04:46:04.930Z,1.76
2022-10-09T04:48:31.393Z,1.74
2022-10-09T04:50:57.918Z,1.77
2022-10-09T04:53:24.443Z,1.68
2022-10-09T04:55:50.910Z,1.64
2022-10-09T04:58:17.389Z,1.66
2022-10-09T05:00:45.461Z,1.59
2022-10-09T05:03:12.678Z,1.55
2022-10-09T05:05:39.256Z,1.52
2022-10-09T05:08:06.230Z,1.51
2022-10-09T05:10:32.894Z,1.49
2022-10-09T05:12:59.757Z,1.48
2022-10-09T05:15:26.519Z,1.48
2022-10-09T05:17:52.964Z,1.50
2022-10-09T05:20:19.491Z,1.48
2022-10-09T05:22:47.562Z,1.50
2022-10-09T05:25:14.508Z,1.51
2022-10-09T05:27:41.134Z,1.45
2022-10-09T05:30:08.908Z,1.40
2022-10-09T05:32:35.482Z,1.39
2022-10-09T05:35:01.877Z,1.40
2022-10-09T05:37:28.359Z,1.33
2022-10-09T05:39:54.926Z,1.32
2022-10-09T05:42:21.360Z,1.32
2022-10-09T05:44:47.798Z,1.40
2022-10-09T05:47:17.796Z,1.37
2022-10-09T05:49:44.252Z,1.38
2022-10-09T05:52:10.849Z,1.42
2022-10-09T05:54:37.286Z,1.38
2022-10-09T05:57:04.885Z,1.40
2022-10-09T05:59:31.389Z,1.42
2022-10-09T06:01:57.992Z,1.44
2022-10-09T06:04:24.880Z,1.48
2022-10-09T06:06:51.754Z,1.54
2022-10-09T06:09:24.157Z,1.48
2022-10-09T06:11:51.436Z,1.39
2022-10-09T06:14:18.170Z,1.51
2022-10-09T06:16:46.316Z,1.54
2022-10-09T06:19:15.405Z,1.54
2022-10-09T06:21:43.025Z,1.55
2022-10-09T06:24:17.193Z,1.57
2022-10-09T06:26:43.550Z,1.62
2022-10-09T06:29:10.106Z,1.66
2022-10-09T06:31:36.557Z,1.66
2022-10-09T06:34:03.370Z,1.65
2022-10-09T06:36:32.239Z,1.63
2022-10-09T06:39:00.231Z,1.73
2022-10-09T06:41:33.771Z,1.77
2022-10-09T06:44:16.394Z,1.82
2022-10-09T06:46:45.289Z,1.86
2022-10-09T06:49:11.910Z,1.82
2022-10-09T06:51:38.708Z,1.91
2022-10-09T06:54:11.470Z,1.96
2022-10-09T06:56:37.891Z,2.04
2022-10-09T06:59:05.901Z,2.05
2022-10-09T07:01:33.517Z,2.10
2022-10-09T07:04:02.539Z,2.22
2022-10-09T07:06:33.885Z,2.27
2022-10-09T07:09:02.783Z,2.35
2022-10-09T07:11:36.204Z,2.38
2022-10-09T07:14:05.108Z,2.50
2022-10-09T07:16:42.429Z,2.56
2022-10-09T07:19:15.673Z,2.65
2022-10-09T07:21:44.119Z,2.78
2022-10-09T07:24:11.871Z,2.85
2022-10-09T07:26:41.151Z,2.92
2022-10-09T07:29:15.630Z,2.97
2022-10-09T07:31:42.134Z,3.07
2022-10-09T07:34:08.819Z,3.11
2022-10-09T07:36:35.970Z,3.20
2022-10-09T07:39:04.173Z,3.31
2022-10-09T07:41:31.424Z,3.39
2022-10-09T07:43:58.494Z,3.53
2022-10-09T07:46:30.780Z,3.63
2022-10-09T07:48:59.602Z,3.67
2022-10-09T07:51:29.098Z,3.73
2022-10-09T07:53:57.146Z,3.75
2022-10-09T07:56:28.054Z,3.93
2022-10-09T07:58:56.966Z,4.02
2022-10-09T08:01:24.603Z,4.10
2022-10-09T08:03:51.196Z,4.11
2022-10-09T08:06:18.280Z,4.17
2022-10-09T08:08:57.146Z,4.27
2022-10-09T08:11:25.527Z,4.39
2022-10-09T08:13:53.063Z,4.39
2022-10-09T08:16:21.111Z,4.43
2022-10-09T08:18:48.351Z,4.43
2022-10-09T08:21:17.319Z,4.53
2022-10-09T08:23:44.574Z,4.59
2022-10-09T08:26:16.199Z,4.67
2022-10-09T08:28:43.140Z,4.74
2022-10-09T08:31:14.519Z,4.78
2022-10-09T08:33:41.131Z,4.85
2022-10-09T08:36:09.823Z,4.89
2022-10-09T08:38:47.259Z,4.95
2022-10-09T08:41:48.429Z,5.01
2022-10-09T08:44:18.693Z,5.14
2022-10-09T08:46:57.383Z,5.09
2022-10-09T08:49:56.218Z,5.13
2022-10-09T08:52:36.567Z,5.29
2022-10-09T08:55:29.339Z,5.24
2022-10-09T08:58:00.881Z,5.37
2022-10-09T09:00:38.562Z,5.48
2022-10-09T09:03:25.084Z,5.66
2022-10-09T09:05:54.605Z,5.77
2022-10-09T09:08:29.666Z,5.79
2022-10-09T09:11:21.605Z,5.89
2022-10-09T09:14:07.184Z,6.00
2022-10-09T09:16:58.667Z,6.02
2022-10-09T09:19:36.937Z,6.23
2022-10-09T09:22:05.496Z,6.37
2022-10-09T09:24:38.425Z,6.37
2022-10-09T09:27:20.446Z,6.55
2022-10-09T09:30:11.818Z,6.63
2022-10-09T09:32:44.104Z,6.78
2022-10-09T09:35:25.238Z,6.99
2022-10-09T09:37:52.898Z,7.17
2022-10-09T09:40:37.653Z,7.07
2022-10-09T09:43:14.987Z,7.25
2022-10-09T09:45:43.775Z,7.45
2022-10-09T09:48:16.330Z,7.24
2022-10-09T09:50:56.292Z,7.35
2022-10-09T09:53:39.936Z,7.64
2022-10-09T09:56:07.587Z,7.76
2022-10-09T09:58:38.575Z,7.80
2022-10-09T10:01:06.722Z,8.02
2022-10-09T10:03:35.451Z,8.22
2022-10-09T10:06:02.320Z,8.33
2022-10-09T10:08:33.605Z,8.41
2022-10-09T10:11:06.447Z,8.39
2022-10-09T10:13:38.048Z,8.70
2022-10-09T10:16:06.998Z,8.83
2022-10-09T10:18:39.767Z,9.18
2022-10-09T10:21:09.129Z,9.43
2022-10-09T10:23:39.585Z,9.61
2022-10-09T10:26:45.096Z,9.76
2022-10-09T10:29:23.714Z,9.95
2022-10-09T10:32:05.968Z,10.01
2022-10-09T10:34:43.079Z,10.13
2022-10-09T10:37:12.582Z,10.25
2022-10-09T10:40:01.189Z,10.55
2022-10-09T10:42:43.506Z,10.73
2022-10-09T10:45:14.514Z,10.84
2022-10-09T10:47:47.434Z,11.03
2022-10-09T10:50:15.859Z,11.06
2022-10-09T10:53:10.912Z,11.53
2022-10-09T10:55:53.334Z,11.71
2022-10-09T10:58:31.954Z,11.61
2022-10-09T11:01:09.468Z,11.76
2022-10-09T11:04:02.192Z,11.92
2022-10-09T11:06:53.075Z,12.26
2022-10-09T11:09:50.893Z,12.65
2022-10-09T11:12:48.118Z,12.97
2022-10-09T11:15:37.714Z,13.17
2022-10-09T11:18:23.117Z,12.99
2022-10-09T11:21:01.075Z,13.62
2022-10-09T11:23:49.087Z,14.07
2022-10-09T11:26:50.162Z,14.79
2022-10-09T11:29:23.637Z,16.00
2022-10-09T11:31:56.559Z,16.63
2022-10-09T11:34:33.690Z,17.40
2022-10-09T11:37:01.262Z,18.39
2022-10-09T11:39:32.518Z,18.73
2022-10-09T11:41:59.811Z,19.23
2022-10-09T11:44:57.144Z,19.66
2022-10-09T11:47:42.048Z,20.51
2022-10-09T11:50:22.693Z,22.09
2022-10-09T11:53:10.079Z,22.46
2022-10-09T11:55:38.229Z,24.29
2022-10-09T11:58:14.990Z,23.98
2022-10-09T12:00:42.836Z,23.08
2022-10-09T12:03:43.379Z,23.92
2022-10-09T12:06:17.678Z,25.27
2022-10-09T12:08:56.736Z,25.87
2022-10-09T12:11:24.505Z,26.37
2022-10-09T12:14:00.598Z,25.60
2022-10-09T12:16:45.694Z,26.15
2022-10-09T12:19:23.768Z,26.19
2022-10-09T12:21:56.357Z,26.34
2022-10-09T12:24:31.442Z,26.29
2022-10-09T12:27:03.168Z,26.96
2022-10-09T12:29:50.553Z,25.82
2022-10-09T12:32:23.322Z,24.87
2022-10-09T12:34:51.137Z,27.05
2022-10-09T12:37:20.662Z,27.41
2022-10-09T12:39:49.056Z,25.71
2022-10-09T12:42:20.387Z,25.76
2022-10-09T12:44:50.069Z,26.01
2022-10-09T12:47:28.507Z,26.74
2022-10-09T12:50:21.750Z,28.22
2022-10-09T12:53:00.502Z,28.45
2022-10-09T12:55:30.284Z,28.17
2022-10-09T12:58:22.374Z,28.86
2022-10-09T13:00:54.856Z,29.08
2022-10-09T13:03:25.679Z,28.77
2022-10-09T13:05:52.665Z,29.33
2022-10-09T13:08:32.531Z,28.86
2022-10-09T13:11:12.437Z,29.57
2022-10-09T13:13:39.991Z,26.04
2022-10-09T13:16:10.395Z,25.39
2022-10-09T13:18:38.191Z,23.57
2022-10-09T13:21:34.357Z,23.39
2022-10-09T13:24:13.249Z,23.62
2022-10-09T13:26:43.310Z,24.55
2022-10-09T13:29:13.055Z,24.35
2022-10-09T13:31:43.445Z,25.21
2022-10-09T13:34:12.789Z,26.06
2022-10-09T13:36:39.273Z,26.72
2022-10-09T13:39:06.206Z,27.42
2022-10-09T13:41:33.653Z,26.80
2022-10-09T13:44:00.200Z,27.05
2022-10-09T13:46:26.785Z,25.01
2022-10-09T13:48:53.517Z,24.89
2022-10-09T13:51:20.222Z,25.02
2022-10-09T13:53:46.710Z,24.97
2022-10-09T13:56:13.154Z,24.75
2022-10-09T13:59:31.637Z,24.82
2022-10-09T14:01:59.367Z,25.70
2022-10-09T14:04:27.540Z,25.74
2022-10-09T14:06:53.975Z,25.46
2022-10-09T14:09:21.042Z,24.09
2022-10-09T14:11:47.595Z,24.42
2022-10-09T14:14:14.264Z,25.01
2022-10-09T14:16:40.817Z,24.48
2022-10-09T14:19:07.379Z,25.04
2022-10-09T14:21:36.290Z,24.56
2022-10-09T14:24:03.370Z,24.34
2022-10-09T14:26:30.549Z,25.13
2022-10-09T14:29:02.851Z,24.76
2022-10-09T14:31:30.170Z,24.92
2022-10-09T14:33:58.834Z,22.98
2022-10-09T14:36:25.704Z,22.51
2022-10-09T14:38:52.666Z,21.58
2022-10-09T14:41:19.984Z,21.23
2022-10-09T14:43:48.535Z,19.67
2022-10-09T14:46:17.283Z,18.73
2022-10-09T14:48:45.432Z,17.79
2022-10-09T14:51:16.854Z,17.02
2022-10-09T14:53:45.017Z,16.86
2022-10-09T14:56:18.443Z,17.14
2022-10-09T14:58:46.790Z,16.82
2022-10-09T15:01:22.930Z,16.55
2022-10-09T15:03:51.971Z,16.82
2022-10-09T15:06:24.302Z,16.38
2022-10-09T15:09:03.228Z,16.35
2022-10-09T15:11:35.770Z,16.11
2022-10-09T15:14:05.181Z,15.70
2022-10-09T15:16:34.967Z,15.53
2022-10-09T15:19:02.492Z,15.64
2022-10-09T15:21:32.240Z,15.43
2022-10-09T15:24:03.197Z,15.31
2022-10-09T15:26:38.120Z,15.39
2022-10-09T15:29:09.385Z,15.35
2022-10-09T15:31:38.467Z,15.27
2022-10-09T15:34:07.554Z,15.00
2022-10-09T15:36:36.948Z,14.80
2022-10-09T15:39:07.480Z,14.82
2022-10-09T15:41:36.779Z,14.65
2022-10-09T15:44:06.509Z,14.88
2022-10-09T15:46:33.657Z,14.62
2022-10-09T15:49:00.530Z,14.31
2022-10-09T15:51:31.436Z,14.07
2022-10-09T15:54:01.955Z,13.99
2022-10-09T15:56:29.506Z,14.08
2022-10-09T15:58:57.983Z,13.84
2022-10-09T16:01:25.355Z,13.73
2022-10-09T16:03:52.428Z,13.80
2022-10-09T16:06:22.013Z,13.48
2022-10-09T16:08:56.413Z,13.38
2022-10-09T16:11:26.543Z,13.49
2022-10-09T16:13:54.789Z,13.23
2022-10-09T16:16:24.608Z,13.22
2022-10-09T16:19:17.466Z,13.21
2022-10-09T16:36:24.168Z,12.68
2022-10-09T16:38:50.675Z,12.63
2022-10-09T16:41:20.125Z,12.54
2022-10-09T16:43:49.301Z,12.48
2022-10-09T16:46:19.412Z,12.40
2022-10-09T16:48:51.848Z,12.28
2022-10-09T16:51:38.617Z,12.30
2022-10-09T16:54:06.181Z,12.22
2022-10-09T16:56:36.283Z,12.23
2022-10-09T16:59:08.843Z,12.02
2022-10-09T17:01:40.094Z,11.91
2022-10-09T17:04:06.605Z,11.89
2022-10-09T17:06:33.324Z,11.80
2022-10-09T17:09:03.615Z,11.66
2022-10-09T17:11:30.933Z,11.57
2022-10-09T17:13:57.779Z,11.47
2022-10-09T17:16:28.520Z,11.34
2022-10-09T17:18:57.091Z,11.16
2022-10-09T17:21:26.645Z,11.07
2022-10-09T17:23:57.970Z,11.00
2022-10-09T17:26:25.959Z,10.76
2022-10-09T17:28:53.279Z,10.74
2022-10-09T17:31:23.348Z,10.67
2022-10-09T17:33:53.181Z,10.66
2022-10-09T17:36:22.122Z,10.58
2022-10-09T17:38:50.100Z,10.55
2022-10-09T17:41:19.404Z,10.41
2022-10-09T17:43:46.000Z,10.36
2022-10-09T17:46:17.728Z,10.32
2022-10-09T17:48:52.482Z,10.14
2022-10-09T17:51:37.321Z,10.04
2022-10-09T17:54:09.542Z,9.98
2022-10-09T17:56:39.641Z,9.97
2022-10-09T17:59:06.228Z,9.92
2022-10-09T18:01:33.029Z,9.82
2022-10-09T18:03:59.865Z,9.77
2022-10-09T18:06:27.560Z,9.76
2022-10-09T18:08:58.397Z,9.53
2022-10-09T18:11:28.477Z,9.53
2022-10-09T18:13:55.501Z,9.46
2022-10-09T18:16:31.385Z,9.42
2022-10-09T18:19:21.497Z,9.34
2022-10-09T18:21:49.373Z,9.27
2022-10-09T18:24:16.819Z,9.14
2022-10-09T18:26:46.585Z,9.04
2022-10-09T18:30:32.132Z,9.05
2022-10-09T18:32:59.811Z,8.99
2022-10-09T18:35:30.245Z,8.83
2022-10-09T18:37:56.735Z,8.90
2022-10-09T18:40:23.155Z,8.94
2022-10-09T18:42:49.925Z,8.88
2022-10-09T18:45:36.363Z,8.86
2022-10-09T18:48:03.424Z,8.82
2022-10-09T18:50:30.552Z,8.79
2022-10-09T18:53:23.898Z,8.71
2022-10-09T18:55:50.875Z,8.71
2022-10-09T18:58:17.744Z,8.63
2022-10-09T19:00:44.240Z,8.62
2022-10-09T19:03:10.679Z,8.58
2022-10-09T19:05:37.156Z,8.60
2022-10-09T19:08:03.840Z,8.52
2022-10-09T19:10:30.302Z,8.53
2022-10-09T19:12:56.844Z,8.44
2022-10-09T19:15:35.949Z,8.44
2022-10-09T19:18:02.522Z,8.35
2022-10-09T19:20:29.293Z,8.34
2022-10-09T19:23:02.151Z,8.29
2022-10-09T19:25:28.631Z,8.22
2022-10-09T19:28:08.517Z,8.22
2022-10-09T19:30:39.377Z,8.08
2022-10-09T19:33:06.961Z,8.10
2022-10-09T19:35:33.483Z,8.08
2022-10-09T19:38:02.383Z,7.99
2022-10-09T19:40:28.918Z,7.98
2022-10-09T19:42:55.543Z,7.93
2022-10-09T19:45:24.160Z,7.85
2022-10-09T19:47:54.177Z,7.82
2022-10-09T19:50:21.005Z,7.75
2022-10-09T19:52:47.455Z,7.65
2022-10-09T19:55:14.203Z,7.71
2022-10-09T19:57:41.833Z,7.68
2022-10-09T20:00:34.877Z,7.66
2022-10-09T20:03:01.449Z,7.65
2022-10-09T20:05:28.059Z,7.55
2022-10-09T20:07:54.486Z,7.45
2022-10-09T20:10:20.973Z,7.48
2022-10-09T20:12:47.862Z,7.53
2022-10-09T20:15:14.627Z,7.46
2022-10-09T20:17:41.254Z,7.40
2022-10-09T20:20:08.250Z,7.35
2022-10-09T20:22:34.779Z,7.22
2022-10-09T20:25:01.254Z,7.27
2022-10-09T20:27:27.889Z,7.22
2022-10-09T20:29:54.371Z,7.18
2022-10-09T20:32:24.937Z,7.12
2022-10-09T20:34:51.893Z,7.17
2022-10-09T20:37:18.386Z,7.12
2022-10-09T20:39:44.885Z,7.14
2022-10-09T20:42:11.434Z,7.08
2022-10-09T20:44:40.136Z,7.06
2022-10-09T20:47:06.936Z,7.08
2022-10-09T20:49:33.467Z,7.03
2022-10-09T20:52:00.022Z,7.03
2022-10-09T20:54:26.583Z,7.01
2022-10-09T20:56:53.210Z,7.01
2022-10-09T20:59:19.844Z,6.89
2022-10-09T21:01:46.532Z,6.83
2022-10-09T21:04:14.652Z,6.79
2022-10-09T21:06:42.495Z,6.81
2022-10-09T21:09:09.172Z,6.74
2022-10-09T21:11:35.875Z,6.72
2022-10-09T21:14:03.175Z,6.73
2022-10-09T21:16:29.855Z,6.63
2022-10-09T21:18:59.285Z,6.70
2022-10-09T21:21:26.867Z,6.61
2022-10-09T21:23:55.295Z,6.67
2022-10-09T21:26:23.535Z,6.64
2022-10-09T21:28:52.385Z,6.58
2022-10-09T21:31:23.369Z,6.59
2022-10-09T21:33:50.149Z,6.58
2022-10-09T21:37:08.502Z,6.50
2022-10-09T21:39:30.883Z,6.42
2022-10-09T21:41:57.387Z,6.31
2022-10-09T21:44:23.875Z,6.29
2022-10-09T21:46:57.466Z,6.20
2022-10-09T21:49:27.397Z,6.18
2022-10-09T21:51:54.667Z,6.13
2022-10-09T21:54:21.889Z,6.12
2022-10-09T21:56:48.703Z,5.99
2022-10-09T21:59:15.212Z,5.95
